Time;durP1;ratioP1;P1;durP2;ratioP2;P2;SDS_P1;SDS_P2;PMS_P1;PMS_P2;Temp;Humidity;BMP_temperature;BMP_pressure;BME280_temperature;BME280_humidity;BME280_pressure;Samples;Min_cycle;Max_cycle;Signal;HPM_P1;HPM_P2
2022/08/07 01:29:36;;;;;;;3.17;2.63;;;;;;;12.89;64.54;102685.78;10019523;29;20033;-73
2022/08/07 01:34:37;;;;;;;4.60;4.20;;;;;;;12.88;64.40;102678.66;10234908;28;20039;-72
2022/08/07 01:39:37;;;;;;;3.22;3.03;;;;;;;12.82;64.12;102671.19;10253782;29;20443;-72
2022/08/07 01:44:38;;;;;;;7.88;4.25;;;;;;;12.77;64.42;102679.84;10280095;28;20473;-72
2022/08/07 01:49:38;;;;;;;8.85;4.25;;;;;;;12.72;64.71;102683.06;10333885;28;20042;-72
2022/08/07 01:54:40;;;;;;;4.28;3.88;;;;;;;12.72;64.83;102677.63;10335666;28;20030;-72
2022/08/07 02:00:00;;;;;;;5.38;4.90;;;;;;;12.75;65.53;102671.84;10319054;28;20034;-73
2022/08/07 02:05:12;;;;;;;5.10;4.60;;;;;;;12.67;65.54;102666.41;10317546;28;20090;-71
2022/08/07 02:10:12;;;;;;;5.50;4.55;;;;;;;12.60;65.72;102662.66;10334954;28;20027;-72
2022/08/07 02:15:12;;;;;;;5.57;4.40;;;;;;;12.54;65.81;102661.47;10317349;28;20034;-72
2022/08/07 02:20:13;;;;;;;8.20;5.88;;;;;;;12.48;65.53;102653.16;10318712;28;20030;-72
2022/08/07 02:25:14;;;;;;;4.53;4.13;;;;;;;12.51;65.73;102648.22;10335854;28;20038;-72
2022/08/07 02:30:15;;;;;;;6.53;5.30;;;;;;;12.54;65.96;102647.88;10301850;28;20465;-72
2022/08/07 02:35:17;;;;;;;5.38;4.85;;;;;;;12.51;66.23;102645.50;10333688;28;20039;-71
2022/08/07 02:40:18;;;;;;;4.25;3.95;;;;;;;12.43;66.48;102650.06;10316480;28;20031;-72
2022/08/07 02:45:19;;;;;;;5.20;4.65;;;;;;;12.44;66.66;102654.47;10301920;28;20490;-72
2022/08/07 02:50:19;;;;;;;5.43;4.93;;;;;;;12.45;66.93;102653.47;10316979;28;20101;-72
2022/08/07 02:55:19;;;;;;;9.23;5.07;;;;;;;12.46;67.25;102649.75;10317795;28;20474;-72
2022/08/07 03:00:20;;;;;;;5.65;4.68;;;;;;;12.46;67.58;102649.75;10334090;28;20454;-72
2022/08/07 03:05:21;;;;;;;6.25;5.18;;;;;;;12.46;67.07;102642.44;10300054;28;20172;-72
2022/08/07 03:10:22;;;;;;;13.93;5.13;;;;;;;12.42;67.18;102643.78;10323268;28;20041;-72
2022/08/07 03:15:22;;;;;;;7.70;4.57;;;;;;;12.36;67.54;102644.44;10323187;28;20034;-72
2022/08/07 03:20:22;;;;;;;4.85;4.45;;;;;;;12.30;67.52;102636.97;10324582;28;20046;-72
2022/08/07 03:25:23;;;;;;;8.32;5.20;;;;;;;12.27;67.93;102632.72;10291186;28;20060;-72
2022/08/07 03:30:24;;;;;;;6.28;5.03;;;;;;;12.19;68.21;102638.16;10289997;28;20042;-72
2022/08/07 03:35:25;;;;;;;4.35;3.95;;;;;;;12.13;68.06;102638.81;10307300;28;20058;-71
2022/08/07 03:40:25;;;;;;;4.75;4.25;;;;;;;12.14;68.25;102635.06;10307477;28;20038;-72
2022/08/07 03:45:26;;;;;;;10.10;6.55;;;;;;;12.16;68.55;102633.03;10322939;28;20050;-73
2022/08/07 03:50:27;;;;;;;8.70;5.65;;;;;;;12.18;68.61;102632.84;10306549;28;20037;-72
2022/08/07 03:55:28;;;;;;;5.30;4.78;;;;;;;12.05;68.63;102619.75;10323777;28;20056;-72
2022/08/07 04:00:28;;;;;;;5.22;4.72;;;;;;;12.03;68.79;102622.66;10322652;28;20041;-72
2022/08/07 04:05:28;;;;;;;7.18;4.88;;;;;;;12.02;69.02;102630.94;10321550;28;20213;-73
2022/08/07 04:10:30;;;;;;;6.60;4.50;;;;;;;12.04;68.77;102632.50;10339846;28;20121;-72
2022/08/07 04:15:30;;;;;;;11.02;4.50;;;;;;;12.04;68.74;102634.34;10305093;28;20040;-72
2022/08/07 04:20:30;;;;;;;7.97;5.25;;;;;;;12.01;69.20;102635.53;10317396;28;20041;-72
2022/08/07 04:25:31;;;;;;;4.90;4.43;;;;;;;12.04;70.08;102642.50;10341799;28;20034;-72
2022/08/07 04:30:32;;;;;;;5.70;5.00;;;;;;;12.08;70.27;102636.56;10305333;28;20034;-72
2022/08/07 04:35:37;;;;;;;5.35;4.93;;;;;;;12.08;70.21;102638.44;10304878;28;20026;-72
2022/08/07 04:40:38;;;;;;;5.47;4.97;;;;;;;12.06;70.09;102643.16;10339200;28;20034;-72
2022/08/07 04:46:00;;;;;;;8.77;5.55;;;;;;;12.10;70.11;102650.84;10338099;28;20129;-72
2022/08/07 04:51:38;;;;;;;6.28;4.65;;;;;;;12.21;70.46;102657.81;10337168;28;20030;-72
2022/08/07 04:56:45;;;;;;;5.93;5.32;;;;;;;12.26;70.53;102654.63;10337180;28;20397;-72
2022/08/07 05:01:57;;;;;;;6.53;5.53;;;;;;;12.32;70.53;102643.94;10304989;28;20048;-72
2022/08/07 05:07:02;;;;;;;7.90;5.75;;;;;;;12.47;70.69;102654.16;10321228;28;20524;-72
2022/08/07 05:12:02;;;;;;;12.32;5.35;;;;;;;12.58;70.86;102662.00;10319915;28;20089;-72
2022/08/07 05:17:03;;;;;;;9.35;5.30;;;;;;;12.75;71.11;102660.97;10320552;28;20034;-72
2022/08/07 05:22:05;;;;;;;6.97;6.13;;;;;;;13.62;71.22;102658.53;10320098;28;20058;-72
2022/08/07 05:27:07;;;;;;;7.30;6.03;;;;;;;15.10;72.54;102659.38;10318234;28;20034;-72
2022/08/07 05:32:07;;;;;;;5.10;4.68;;;;;;;16.16;72.50;102659.25;10334460;28;20057;-72
2022/08/07 05:37:08;;;;;;;5.53;4.05;;;;;;;17.17;72.06;102666.41;10301700;28;20022;-72
2022/08/07 05:42:08;;;;;;;4.47;3.90;;;;;;;18.04;71.87;102664.22;10302047;28;20469;-72
2022/08/07 05:47:10;;;;;;;6.78;3.83;;;;;;;18.67;71.74;102659.34;10317898;28;20062;-72
2022/08/07 05:52:10;;;;;;;3.33;2.67;;;;;;;19.27;70.98;102663.00;10316827;28;20117;-72
2022/08/07 05:57:11;;;;;;;2.45;2.25;;;;;;;19.82;69.83;102654.47;10335691;28;20031;-72
2022/08/07 06:02:15;;;;;;;2.25;1.95;;;;;;;20.20;69.00;102657.25;10334501;28;20389;-72
2022/08/07 06:07:15;;;;;;;2.05;1.90;;;;;;;20.52;68.29;102662.84;10317158;28;20150;-72
2022/08/07 06:12:15;;;;;;;2.53;2.10;;;;;;;20.74;65.90;102657.81;10317117;28;20094;-72
2022/08/07 06:17:18;;;;;;;2.83;2.43;;;;;;;20.99;64.57;102663.31;10334714;28;20363;-72
2022/08/07 06:22:18;;;;;;;6.20;2.42;;;;;;;21.57;63.68;102667.72;10317834;28;20727;-72
2022/08/07 06:27:22;;;;;;;5.03;3.05;;;;;;;22.01;62.84;102663.78;10301484;28;20245;-72
2022/08/07 06:32:22;;;;;;;2.83;2.63;;;;;;;21.95;61.51;102673.00;10334074;28;20038;-72
2022/08/07 06:37:23;;;;;;;4.10;3.80;;;;;;;22.53;60.80;102666.13;10333406;28;20030;-72
2022/08/07 06:42:32;;;;;;;3.30;3.00;;;;;;;22.27;60.36;102668.19;10338680;28;20046;-73
2022/08/07 06:47:33;;;;;;;3.83;3.47;;;;;;;22.92;58.93;102667.41;10326201;28;20065;-73
2022/08/07 06:52:35;;;;;;;3.92;3.33;;;;;;;23.36;58.37;102662.44;10326782;28;20052;-73
2022/08/07 06:57:36;;;;;;;4.68;3.78;;;;;;;23.99;56.93;102669.09;10324704;28;20038;-72
2022/08/07 07:02:36;;;;;;;4.25;3.58;;;;;;;24.22;56.70;102668.19;10307581;28;20041;-72
2022/08/07 07:07:37;;;;;;;3.58;3.28;;;;;;;24.66;55.88;102673.19;10323913;28;20126;-71
2022/08/07 07:12:48;;;;;;;2.63;2.42;;;;;;;25.08;55.13;102668.13;10323804;28;20454;-71
2022/08/07 07:18:01;;;;;;;5.60;3.65;;;;;;;24.96;51.15;102676.50;10324264;28;20027;-71
2022/08/07 07:23:02;;;;;;;2.88;2.67;;;;;;;25.14;51.72;102664.34;10341765;28;20031;-71
2022/08/07 07:28:30;;;;;;;3.83;2.65;;;;;;;25.12;48.60;102668.47;10340026;28;20030;-72
2022/08/07 07:33:31;;;;;;;1.10;1.10;;;;;;;25.35;50.04;102661.91;10308394;28;20054;-72
2022/08/07 07:38:32;;;;;;;2.72;2.58;;;;;;;25.88;48.86;102660.47;10321875;28;20435;-72
2022/08/07 07:43:32;;;;;;;2.10;2.00;;;;;;;26.19;48.99;102661.66;10339682;28;20056;-72
2022/08/07 07:48:33;;;;;;;1.88;1.75;;;;;;;26.64;48.09;102661.34;10322320;28;20041;-72
2022/08/07 07:53:36;;;;;;;5.68;2.28;;;;;;;26.58;46.07;102658.75;10289304;28;20026;-72
2022/08/07 07:58:36;;;;;;;3.08;1.85;;;;;;;26.72;46.47;102653.63;10308123;28;20034;-72
2022/08/07 08:03:37;;;;;;;2.10;1.90;;;;;;;26.84;45.45;102649.56;10321980;28;20052;-72
2022/08/07 08:08:38;;;;;;;2.75;2.55;;;;;;;26.95;43.76;102650.47;10321043;28;20101;-72
2022/08/07 08:13:41;;;;;;;3.08;2.17;;;;;;;27.28;43.29;102634.63;10305314;28;20034;-72
2022/08/07 08:18:42;;;;;;;2.72;2.53;;;;;;;26.74;41.99;102637.50;10305449;28;20030;-72
2022/08/07 08:29:02;;;;;;;6.25;2.83;;;;;;;27.16;43.63;102636.78;10309061;28;20474;-72
2022/08/07 08:34:03;;;;;;;2.80;2.60;;;;;;;27.45;43.04;102640.84;10303901;28;20026;-72
2022/08/07 08:39:04;;;;;;;2.17;2.05;;;;;;;28.02;42.74;102625.28;10320272;28;20046;-72
2022/08/07 08:44:11;;;;;;;3.83;2.88;;;;;;;28.30;41.91;102629.50;10336949;28;20437;-68
2022/08/07 08:49:31;;;;;;;3.85;1.95;;;;;;;28.15;38.86;102630.31;10303481;28;20084;-69
2022/08/07 08:54:33;;;;;;;3.50;1.92;;;;;;;28.52;40.38;102629.28;10336875;28;20041;-70
2022/08/07 08:59:46;;;;;;;1.85;1.75;;;;;;;28.92;40.93;102628.47;10303975;28;20034;-70
2022/08/07 09:04:59;;;;;;;2.53;2.10;;;;;;;29.20;40.87;102626.25;10318176;28;20129;-69
2022/08/07 09:10:06;;;;;;;2.67;2.35;;;;;;;29.52;39.29;102623.09;10319478;28;20065;-68
2022/08/07 09:15:15;;;;;;;1.95;1.85;;;;;;;29.31;38.70;102618.69;10335984;28;20377;-69
2022/08/07 09:20:55;;;;;;;2.50;2.13;;;;;;;29.35;38.32;102623.38;10319201;28;20030;-68
2022/08/07 09:26:08;;;;;;;2.80;1.98;;;;;;;29.35;36.11;102606.66;10300749;28;20182;-69
2022/08/07 09:31:27;;;;;;;2.40;1.65;;;;;;;28.62;36.26;102614.53;10319376;28;20026;-70
2022/08/07 09:36:33;;;;;;;4.25;1.80;;;;;;;28.96;35.95;102620.38;10335277;28;20394;-70
2022/08/07 09:41:42;;;;;;;4.78;2.03;;;;;;;29.06;32.46;102616.78;10318296;28;20034;-71
2022/08/07 09:46:49;;;;;;;1.73;1.55;;;;;;;29.04;36.75;102616.22;10286326;28;20467;-70
2022/08/07 09:51:58;;;;;;;6.43;2.80;;;;;;;29.67;36.34;102608.25;10335728;28;20034;-70
2022/08/07 09:57:12;;;;;;;1.70;1.60;;;;;;;30.19;36.90;102606.91;10335102;28;20037;-69
2022/08/07 10:02:32;;;;;;;3.08;2.42;;;;;;;30.54;36.76;102591.00;10317395;28;20042;-67
2022/08/07 10:07:54;;;;;;;2.70;2.10;;;;;;;29.93;37.21;102586.63;10335051;28;20034;-68
2022/08/07 10:12:55;;;;;;;1.77;1.65;;;;;;;30.38;37.57;102578.22;10301768;28;20397;-68
2022/08/07 10:17:59;;;;;;;2.10;1.80;;;;;;;30.52;36.58;102576.47;10345830;28;20037;-69
2022/08/07 10:23:08;;;;;;;1.73;1.65;;;;;;;30.92;36.29;102575.28;10347838;28;20026;-68
2022/08/07 10:28:15;;;;;;;2.45;1.85;;;;;;;31.39;35.81;102564.44;10314392;28;20089;-68
2022/08/07 10:33:36;;;;;;;6.90;2.30;;;;;;;31.34;36.82;102568.13;10347165;28;20026;-69
2022/08/07 10:38:51;;;;;;;1.27;1.27;;;;;;;30.95;35.79;102557.91;10314665;28;20044;-70
2022/08/07 10:43:56;;;;;;;6.93;1.50;;;;;;;30.74;34.97;102556.41;10329866;28;20113;-70
2022/08/07 10:49:18;;;;;;;0.97;0.97;;;;;;;30.99;35.03;102542.19;10329356;28;20097;-70
2022/08/07 10:54:40;;;;;;;1.83;1.35;;;;;;;31.35;34.22;102540.97;10346871;28;20022;-69
2022/08/07 10:59:52;;;;;;;1.13;1.13;;;;;;;31.62;33.95;102540.31;10314207;28;20501;-69
2022/08/07 11:05:17;;;;;;;2.45;1.27;;;;;;;31.91;33.57;102532.66;10329915;28;20030;-70
2022/08/07 11:10:30;;;;;;;0.93;0.93;;;;;;;31.90;33.66;102535.75;10346687;28;20038;-70
2022/08/07 11:15:34;;;;;;;1.02;1.02;;;;;;;32.21;32.78;102529.69;10329678;28;20038;-70
2022/08/07 11:20:52;;;;;;;1.00;1.00;;;;;;;32.28;32.33;102528.13;10329461;28;20049;-71
2022/08/07 11:26:37;;;;;;;1.10;1.10;;;;;;;31.84;33.36;102514.53;10312712;28;20056;-71
2022/08/07 11:31:45;;;;;;;2.60;2.40;;;;;;;31.86;31.42;102524.28;10277354;28;20034;-70
2022/08/07 11:36:59;;;;;;;0.95;0.95;;;;;;;31.02;31.07;102515.59;10322844;28;20066;-69
2022/08/07 11:42:14;;;;;;;1.88;1.77;;;;;;;31.53;32.60;102508.56;10321912;28;20034;-69
2022/08/07 11:47:32;;;;;;;1.95;1.60;;;;;;;31.59;31.75;102499.78;10322538;28;20133;-70
2022/08/07 11:53:00;;;;;;;4.30;1.50;;;;;;;31.68;32.10;102505.50;10339034;28;20034;-70
2022/08/07 11:58:26;;;;;;;1.52;1.42;;;;;;;31.77;32.01;102497.28;10338958;28;20382;-70
2022/08/07 12:03:36;;;;;;;5.10;2.08;;;;;;;31.30;31.53;102507.41;10322176;28;20030;-69
2022/08/07 12:08:51;;;;;;;5.10;2.40;;;;;;;31.22;31.25;102500.50;10338538;28;20033;-69
2022/08/07 12:14:19;;;;;;;1.98;1.88;;;;;;;31.07;31.61;102500.69;10306742;28;20026;-70
2022/08/07 12:19:44;;;;;;;1.75;1.65;;;;;;;31.56;32.68;102497.56;10306130;28;20037;-70
2022/08/07 12:25:51;;;;;;;1.95;1.85;;;;;;;31.70;32.55;102509.69;10323803;28;20373;-70
2022/08/07 12:30:05;;;;;;;1.70;1.60;;;;;;;31.48;32.17;102501.88;10336986;28;20149;-70
2022/08/07 12:35:08;;;;;;;8.07;2.53;;;;;;;31.58;32.90;102500.88;10318914;28;20041;-71
2022/08/07 12:40:09;;;;;;;8.93;2.15;;;;;;;31.92;32.65;102494.28;10319443;28;20030;-71
2022/08/07 12:45:15;;;;;;;2.50;1.52;;;;;;;31.34;31.84;102494.53;10304977;28;20456;-70
2022/08/07 12:50:22;;;;;;;1.83;1.73;;;;;;;30.50;31.26;102492.03;10319471;28;20038;-70
2022/08/07 12:55:28;;;;;;;1.92;1.83;;;;;;;30.16;32.50;102486.47;10319908;28;20034;-70
2022/08/07 13:00:50;;;;;;;2.00;1.80;;;;;;;29.88;32.91;102492.53;10336403;28;20034;-72
2022/08/07 13:06:06;;;;;;;2.50;1.38;;;;;;;29.55;33.08;102473.72;10303277;28;20069;-71
2022/08/07 13:11:06;;;;;;;;;;;;;;;29.85;32.85;102487.50;10319111;28;20058;-72
2022/08/07 13:16:16;;;;;;;1.85;1.75;;;;;;;30.06;32.97;102482.63;10335645;28;19957;-69
2022/08/07 13:21:23;;;;;;;2.30;2.10;;;;;;;30.29;32.85;102475.47;10335757;28;20355;-71
2022/08/07 13:26:29;;;;;;;3.20;2.17;;;;;;;30.57;33.08;102470.19;10302381;28;20112;-80
2022/08/07 13:31:31;;;;;;;;;;;;;;;30.47;33.90;102476.72;10318825;28;20026;-79
2022/08/07 13:36:40;;;;;;;2.33;1.92;;;;;;;29.94;33.93;102472.94;10318003;28;19943;-82
2022/08/07 13:41:48;;;;;;;3.50;2.22;;;;;;;28.89;34.05;102466.47;10301985;28;20053;-79
2022/08/07 13:46:48;;;;;;;3.25;1.77;;;;;;;29.07;34.64;102460.28;10316961;28;20180;-77
2022/08/07 13:51:49;;;;;;;4.22;2.00;;;;;;;29.17;34.89;102460.25;10301392;28;20061;-75
2022/08/07 13:56:51;;;;;;;1.88;1.73;;;;;;;29.24;34.17;102470.25;10318345;28;20113;-77
2022/08/07 14:01:54;;;;;;;2.47;1.80;;;;;;;28.75;34.99;102469.00;10317027;28;20096;-77
2022/08/07 14:06:54;;;;;;;1.20;1.20;;;;;;;28.05;35.47;102466.81;10302457;28;20034;-72
2022/08/07 14:12:01;;;;;;;1.80;1.70;;;;;;;27.61;36.11;102474.78;10300764;28;20398;-73
2022/08/07 14:17:02;;;;;;;3.33;1.77;;;;;;;27.13;36.22;102468.47;10335021;28;20184;-74
2022/08/07 14:22:04;;;;;;;4.03;1.92;;;;;;;26.85;36.34;102475.28;10334609;28;20082;-73
2022/08/07 14:27:07;;;;;;;2.55;2.20;;;;;;;26.27;37.01;102477.06;10301194;28;20034;-73
2022/08/07 14:32:08;;;;;;;1.40;1.30;;;;;;;26.19;37.01;102482.00;10316800;28;20129;-72
2022/08/07 14:37:10;;;;;;;2.17;1.98;;;;;;;26.28;37.07;102470.41;10300861;28;20377;-72
2022/08/07 14:42:11;;;;;;;5.57;1.98;;;;;;;26.31;37.16;102469.88;10316465;28;20088;-72
2022/08/07 14:47:11;;;;;;;2.08;1.92;;;;;;;26.39;36.71;102467.47;10299958;28;20054;-72
2022/08/07 14:52:12;;;;;;;2.40;2.20;;;;;;;25.91;37.36;102471.19;10315511;28;20031;-73
2022/08/07 14:57:13;;;;;;;2.10;1.85;;;;;;;25.70;37.85;102468.19;10299911;28;20268;-73
2022/08/07 15:02:14;;;;;;;6.43;2.25;;;;;;;25.86;37.83;102468.38;10317908;28;20081;-73
2022/08/07 15:07:20;;;;;;;4.50;3.05;;;;;;;25.95;38.04;102464.03;10307895;28;20397;-73
2022/08/07 15:12:25;;;;;;;5.88;2.47;;;;;;;25.34;38.61;102468.88;10308331;28;20046;-73
2022/08/07 15:17:31;;;;;;;4.18;2.45;;;;;;;25.03;38.70;102460.16;10307607;28;20502;-73
2022/08/07 15:22:41;;;;;;;2.63;2.42;;;;;;;25.09;38.54;102461.88;10323292;28;20034;-73
2022/08/07 15:27:42;;;;;;;2.78;2.58;;;;;;;25.40;38.90;102443.72;10324427;28;20382;-73
2022/08/07 15:32:44;;;;;;;2.38;2.17;;;;;;;25.47;39.14;102458.22;10322671;28;20038;-73
2022/08/07 15:37:53;;;;;;;4.70;2.70;;;;;;;25.48;39.19;102451.56;10306194;28;20044;-73
2022/08/07 15:43:03;;;;;;;2.33;2.13;;;;;;;25.47;39.38;102451.84;10324147;28;20033;-73
2022/08/07 15:48:09;;;;;;;4.10;2.17;;;;;;;25.50;39.08;102441.06;10340804;28;20046;-73
2022/08/07 15:53:22;;;;;;;2.38;2.17;;;;;;;25.21;39.46;102434.91;10321761;28;20088;-73
2022/08/07 15:58:31;;;;;;;5.00;2.80;;;;;;;24.71;39.79;102435.88;10323490;28;20030;-73
2022/08/07 16:03:31;;;;;;;7.80;2.67;;;;;;;24.18;39.93;102431.69;10305822;28;20030;-73
2022/08/07 16:08:33;;;;;;;4.53;2.45;;;;;;;24.31;39.95;102428.63;10305028;28;20026;-72
2022/08/07 16:13:51;;;;;;;2.30;2.08;;;;;;;24.26;40.61;102428.53;10321859;28;20092;-73
2022/08/07 16:19:16;;;;;;;2.72;2.50;;;;;;;23.89;41.07;102426.25;10337752;28;20026;-72
2022/08/07 16:24:25;;;;;;;4.32;3.33;;;;;;;23.49;41.02;102425.50;10337368;28;20034;-73
2022/08/07 16:29:49;;;;;;;9.05;3.90;;;;;;;23.26;41.35;102420.88;10322413;28;20036;-72
2022/08/07 16:34:51;;;;;;;7.35;2.67;;;;;;;22.89;41.75;102422.03;10320312;28;20080;-72
2022/08/07 16:40:29;;;;;;;2.97;2.63;;;;;;;22.53;42.77;102423.16;10320195;28;20061;-72
2022/08/07 16:45:48;;;;;;;8.88;3.55;;;;;;;22.32;42.63;102419.06;10321020;28;20057;-72
2022/08/07 16:51:06;;;;;;;3.08;2.78;;;;;;;22.17;42.47;102419.53;10336942;28;20034;-72
2022/08/07 16:56:12;;;;;;;7.50;2.85;;;;;;;21.83;42.85;102421.13;10319988;28;20035;-72
2022/08/07 17:01:37;;;;;;;7.13;3.13;;;;;;;21.55;43.26;102416.25;10336725;28;20030;-72
2022/08/07 17:06:55;;;;;;;5.25;3.22;;;;;;;21.41;43.53;102417.50;10337392;28;20042;-72
2022/08/07 17:11:58;;;;;;;5.15;4.15;;;;;;;21.25;43.11;102413.44;10321519;28;20446;-72
2022/08/07 17:17:00;;;;;;;6.22;3.78;;;;;;;21.10;44.48;102428.47;10305045;28;20053;-72
2022/08/07 17:22:24;;;;;;;3.25;2.95;;;;;;;20.96;44.51;102421.41;10339427;28;20474;-72
2022/08/07 17:27:42;;;;;;;3.13;2.85;;;;;;;20.83;44.71;102416.91;10303429;28;20442;-72
2022/08/07 17:32:58;;;;;;;2.97;2.78;;;;;;;20.61;46.35;102413.78;10304716;28;20034;-72
2022/08/07 17:38:09;;;;;;;9.93;4.50;;;;;;;20.47;45.56;102409.44;10304344;28;20126;-73
2022/08/07 17:43:32;;;;;;;8.07;3.45;;;;;;;20.39;45.80;102399.56;10319972;28;20029;-72
2022/08/07 17:48:33;;;;;;;5.95;4.20;;;;;;;20.30;46.27;102405.59;10240498;29;20058;-72
2022/08/07 17:53:33;;;;;;;4.63;3.38;;;;;;;20.18;46.30;102403.56;10253963;29;20039;-72
2022/08/07 17:58:44;;;;;;;4.95;2.45;;;;;;;20.05;48.61;102408.34;10254986;29;20043;-73
2022/08/07 18:03:59;;;;;;;3.30;3.03;;;;;;;19.94;49.04;102412.63;10237886;29;20042;-72
2022/08/07 18:09:00;;;;;;;3.03;2.25;;;;;;;19.84;48.93;102410.38;10253512;29;20031;-72
2022/08/07 18:14:27;;;;;;;3.60;2.83;;;;;;;19.71;49.29;102408.56;10253591;29;20387;-72
2022/08/07 18:19:43;;;;;;;5.63;2.85;;;;;;;19.58;49.31;102408.63;10253523;29;20035;-72
2022/08/07 18:24:45;;;;;;;4.05;2.92;;;;;;;19.47;51.18;102412.09;10253168;29;20043;-72
2022/08/07 18:29:51;;;;;;;4.68;2.80;;;;;;;19.36;50.56;102415.53;10252843;29;20031;-72
2022/08/07 18:35:15;;;;;;;11.85;4.53;;;;;;;19.25;50.48;102414.31;10238207;29;20038;-72
2022/08/07 18:40:49;;;;;;;4.00;3.67;;;;;;;19.11;50.88;102412.69;10260253;29;20042;-72
2022/08/07 18:46:16;;;;;;;12.27;4.32;;;;;;;18.93;51.17;102416.16;10285260;28;20462;-72
2022/08/07 18:51:28;;;;;;;6.20;4.80;;;;;;;18.78;52.18;102422.72;10327199;28;20422;-72
2022/08/07 18:56:45;;;;;;;5.20;3.95;;;;;;;18.63;52.54;102419.34;10334613;28;20052;-72
2022/08/07 19:02:19;;;;;;;7.18;5.20;;;;;;;18.50;52.99;102422.09;10334693;28;20034;-72
2022/08/07 19:07:58;;;;;;;12.68;4.28;;;;;;;18.31;52.46;102430.16;10272676;28;20121;-72
2022/08/07 19:13:14;;;;;;;12.75;5.00;;;;;;;18.16;53.97;102436.91;10338900;28;20042;-72
2022/08/07 19:18:17;;;;;;;18.63;4.55;;;;;;;18.03;53.92;102435.84;10324514;28;20065;-72
2022/08/07 19:23:38;;;;;;;5.97;5.38;;;;;;;17.92;53.88;102435.63;10340561;28;20072;-72
2022/08/07 19:29:02;;;;;;;10.05;4.15;;;;;;;17.75;54.18;102448.84;10340144;28;20101;-72
2022/08/07 19:34:03;;;;;;;5.15;3.25;;;;;;;17.65;54.82;102457.47;10331218;28;20042;-72
2022/08/07 19:39:04;;;;;;;5.13;4.38;;;;;;;17.53;54.85;102461.84;10339820;28;20038;-72
2022/08/07 19:44:04;;;;;;;6.68;4.32;;;;;;;17.42;55.54;102464.13;10322075;28;20516;-72
2022/08/07 19:49:05;;;;;;;8.13;5.85;;;;;;;17.30;55.68;102453.97;10321683;28;20066;-72
2022/08/07 19:54:06;;;;;;;11.45;7.20;;;;;;;17.22;55.62;102474.16;10322066;28;20382;-72
2022/08/07 19:59:15;;;;;;;9.65;5.28;;;;;;;17.11;56.17;102461.88;10339830;28;20042;-71
2022/08/07 20:04:26;;;;;;;8.80;4.80;;;;;;;17.01;56.48;102472.38;10322966;28;20113;-72
2022/08/07 20:09:27;;;;;;;8.20;4.82;;;;;;;16.90;56.15;102486.59;10321601;28;20042;-72
2022/08/07 20:14:30;;;;;;;11.45;4.90;;;;;;;16.84;56.71;102482.78;10321511;28;20034;-72
2022/08/07 20:19:31;;;;;;;5.85;4.47;;;;;;;16.74;57.61;102485.00;10321325;28;20125;-72
2022/08/07 20:24:33;;;;;;;6.95;3.65;;;;;;;16.67;57.11;102486.84;10322177;28;20026;-72
2022/08/07 20:29:35;;;;;;;6.13;4.15;;;;;;;16.54;57.45;102481.28;10329676;28;20109;-72
2022/08/07 20:34:35;;;;;;;7.65;4.93;;;;;;;16.48;57.75;102477.44;10347641;28;20042;-72
2022/08/07 20:39:36;;;;;;;5.60;3.97;;;;;;;16.40;57.79;102478.44;10316971;28;20353;-72
2022/08/07 20:44:39;;;;;;;5.00;4.32;;;;;;;16.27;57.79;102470.09;10327075;28;20065;-72
2022/08/07 20:49:42;;;;;;;7.53;3.97;;;;;;;16.24;58.21;102475.97;10305424;28;20030;-75
2022/08/07 20:54:45;;;;;;;9.45;4.28;;;;;;;16.16;58.07;102478.84;10307104;28;20474;-73
2022/08/07 20:59:45;;;;;;;6.25;3.80;;;;;;;16.13;58.56;102477.34;10318741;28;20425;-73
2022/08/07 21:04:45;;;;;;;8.45;4.60;;;;;;;16.12;58.31;102485.75;10319668;28;20034;-72
2022/08/07 21:09:46;;;;;;;8.13;6.05;;;;;;;16.07;58.66;102488.22;10303797;28;20038;-73
2022/08/07 21:14:46;;;;;;;11.23;4.57;;;;;;;15.98;59.02;102495.69;10319051;28;20035;-73
2022/08/07 21:19:47;;;;;;;8.70;5.03;;;;;;;15.92;59.25;102497.34;10302837;28;20125;-72
2022/08/07 21:25:02;;;;;;;8.25;4.50;;;;;;;15.85;59.81;102493.66;10319101;28;20030;-72
2022/08/07 21:30:07;;;;;;;10.70;5.13;;;;;;;15.80;59.61;102488.78;10337323;28;20043;-72
2022/08/07 21:35:25;;;;;;;7.07;4.75;;;;;;;15.81;60.04;102495.94;10335789;28;20092;-72
2022/08/07 21:41:07;;;;;;;7.28;4.95;;;;;;;15.76;60.21;102483.91;10323358;28;20042;-72
2022/08/07 21:46:19;;;;;;;6.90;3.92;;;;;;;15.74;60.53;102486.00;10245451;28;20532;-72
2022/08/07 21:51:26;;;;;;;6.47;4.65;;;;;;;15.68;60.73;102492.22;10310259;28;20056;-73
2022/08/07 21:56:38;;;;;;;4.32;3.45;;;;;;;15.61;60.98;102499.47;10320680;28;20036;-72
2022/08/07 22:01:52;;;;;;;4.88;3.58;;;;;;;15.55;61.38;102504.66;10295456;28;20373;-72
2022/08/07 22:07:04;;;;;;;7.13;4.10;;;;;;;15.53;61.17;102511.31;10318097;28;20034;-71
2022/08/07 22:12:13;;;;;;;4.18;3.75;;;;;;;15.51;61.37;102508.81;10301522;28;20473;-71
2022/08/07 22:17:16;;;;;;;7.40;4.57;;;;;;;15.49;61.65;102508.13;10316512;28;20066;-72
2022/08/07 22:22:22;;;;;;;8.38;4.65;;;;;;;15.40;61.83;102501.09;10317579;28;20042;-72
2022/08/07 22:27:47;;;;;;;8.50;4.43;;;;;;;15.37;62.14;102509.66;10317426;28;20030;-72
2022/08/07 22:33:05;;;;;;;6.72;4.75;;;;;;;15.35;62.55;102520.78;10333186;28;20042;-72
2022/08/07 22:38:27;;;;;;;6.65;4.40;;;;;;;15.27;62.91;102525.47;10316696;28;20452;-72
2022/08/07 22:43:35;;;;;;;3.97;3.67;;;;;;;15.24;62.70;102525.84;10315354;28;20038;-71
2022/08/07 22:49:11;;;;;;;7.07;4.10;;;;;;;15.25;63.55;102522.97;10301456;28;20053;-72
2022/08/07 22:54:36;;;;;;;4.53;4.13;;;;;;;15.26;63.53;102526.53;10319227;28;20473;-71
2022/08/07 22:59:47;;;;;;;4.03;3.33;;;;;;;15.27;63.29;102520.03;10319049;28;20041;-72
2022/08/07 23:05:25;;;;;;;3.30;3.10;;;;;;;15.26;63.72;102526.53;10316618;28;20165;-72
2022/08/07 23:10:43;;;;;;;19.42;4.25;;;;;;;15.24;64.73;102534.88;10316555;28;20121;-72
2022/08/07 23:16:22;;;;;;;5.90;4.63;;;;;;;15.18;65.27;102529.34;10317147;28;20046;-71
2022/08/07 23:21:27;;;;;;;8.73;4.90;;;;;;;15.09;64.43;102524.00;10318591;28;20034;-71
2022/08/07 23:26:52;;;;;;;14.23;5.15;;;;;;;15.01;65.28;102518.63;10322495;28;20030;-71
2022/08/07 23:32:09;;;;;;;7.65;4.63;;;;;;;14.96;65.37;102536.56;10323708;28;20034;-71
2022/08/07 23:37:21;;;;;;;;;;;;;;;14.93;65.22;102526.88;10308783;28;20109;-71
2022/08/07 23:42:28;;;;;;;4.72;4.32;;;;;;;14.88;66.41;102537.50;10322645;28;19917;-71
2022/08/07 23:47:35;;;;;;;7.07;5.50;;;;;;;14.84;66.28;102538.94;10322645;28;20056;-72
2022/08/07 23:52:44;;;;;;;8.93;4.70;;;;;;;14.81;66.11;102536.56;10340247;28;20077;-72
2022/08/07 23:57:54;;;;;;;5.22;4.65;;;;;;;14.82;66.19;102540.97;10339489;28;20034;-72
